AirNav   Pilot Hours Calculator
 
 1442 users online  

NH48 Elliot Hospital Heliport
Manchester, New Hampshire, USA

GOING TO MANCHESTER?


FAA INFORMATION EFFECTIVE 07 NOVEMBER 2019

Location

FAA Identifier: NH48
Lat/Long: 42-59-05.8000N 071-26-15.8000W
42-59.096667N 071-26.263333W
42.9849444,-71.4377222
(estimated)
Elevation: 329 ft. / 100 m (estimated)
Time zone: UTC -5 (UTC -4 during Daylight Saving Time)
Zip code: 03103

Heliport Operations

Heliport use: Private use. Permission required prior to landing
Activation date: 05/2015
Control tower: no
ARTCC: BOSTON CENTER
FSS: BANGOR FLIGHT SERVICE STATION
Attendance: 
Wind indicator: lighted
Segmented circle: no
Lights: SS-SR

Heliport Communications

WX ASOS at MHT (3 nm S): 119.55 (603-621-1766)
WX AWOS-3PT at ASH (13 nm S): 125.1 (603-578-0473)
WX ASOS at CON (13 nm N): 132.325 (603-224-6558)

Nearby radio navigation aids

VOR radial/distance  VOR name  Freq  Var
MHTr352/7.6MANCHESTER VOR/DME114.4015W
CONr172/15.3CONCORD VOR/DME112.9015W
LWMr329/21.0LAWRENCE VOR/DME112.5015W
PSMr273/27.2PEASE VOR/DME116.5016W
GDMr060/38.0GARDNER VOR/DME110.6014W
EENr087/39.2KEENE VORTAC109.4014W

 
NDB name  Hdg/Dist  Freq  Var  ID
EPSOM191/8.121616WCO -.-. ---
FITZY044/8.320915WMJ -- .---
ROLLINS258/30.226016WESG . ... --.
SHAKER HILL356/33.725116WSKR ... -.- .-.

Heliport Services

Runway Information

Helipad H1

Dimensions: 44 x 44 ft. / 13 x 13 m
Surface: concrete
Runway edge lights: PERI
Traffic pattern: leftleft
Obstructions: bldg
BLDG 80 FT 'S' HOSPITAL;PLINES 90 FT 'N'; SMOKE STACK 275 FT 'SE'.

Heliport Ownership and Management from official FAA records

Ownership: Privately-owned
Owner: DARTMOUTH ADVANCED RESPONSE TEAM
ONE MEDICAL CENTER DR
LEBANON, NH 03756
Phone 603-650-9434

Additional Remarks

FOR CD CTC BOSTON APCH AT 603-594-5551.

Instrument Procedures

There are no published instrument procedures at NH48.

Some nearby airports with instrument procedures:

KMHT - Manchester Airport (3 nm S)
KASH - Boire Field Airport (13 nm S)
KCON - Concord Municipal Airport (13 nm N)
KLWM - Lawrence Municipal Airport (21 nm SE)
KAFN - Jaffrey Airport-Silver Ranch (27 nm SW)
 
Loc | Ops | Rwys | IFR | FBO | Links
Com | Nav | Svcs | Stats | Notes
Aerial photo
No photo
 
Airport distance calculator
Flying to Elliot Hospital Heliport? Find the distance to fly.

From to NH48

Sunrise and sunset
Times for 13-Nov-2019
 Local
(UTC-5)
 Zulu
(UTC)
Morning civil twilight06:0611:06
Sunrise06:3711:37
Sunset16:2421:24
Evening civil twilight16:5421:54

Current date and time
Zulu (UTC)  13-Nov-2019 20:18:58
Local (UTC-5)  13-Nov-2019 15:18:58
 
METAR
KMHT 
3nm S 
131953Z 30013G20KT 10SM FEW055 FEW250 M02/M16 A3025 RMK AO2 SLP266 T10221156
KCON 
13nm N 
131951Z AUTO 31013G21KT 10SM CLR M04/M14 A3026 RMK AO2 SLP255 T10391139
KASH 
14nm S 
131956Z 31012G16KT 10SM CLR M02/M14 A3028 RMK AO2 SLP262 T10221144
TAF
KMHT 
3nm S 
131737Z 1318/1418 31012G21KT P6SM FEW050 FM132200 34002KT P6SM OVC250 FM141000 14002KT P6SM OVC100
KCON 
13nm N 
131737Z 1318/1418 31015G22KT P6SM SKC FM132300 31002KT P6SM OVC250 FM141000 18003KT P6SM OVC100
NOTAMs
Click for the latest NOTAMs
NOTAMs are issued by the DoD/FAA and will open in a separate window not controlled by AirNav.

 

 
 

Would you like to see your business listed on this page?

 If your business provides an interesting product or service to pilots, flight crews, aircraft, or users of the Elliot Hospital Heliport, you should consider listing it here.  To start the listing process, click on the button below
 
Add a business
 

Other Pages about Elliot Hospital Heliport

Update a link
 
Copyright © AirNav, LLC. All rights reserved. Privacy Policy  Contact